Startpagina
METAR-TAF:

METAR-TAF

Vliegvelden :

Córdoba, Argentinië

breedte: 31-19S, lengte: 064-13W, hoogte: 484 m

Actueel weer

Dit bericht is 13 minuten geleden gemaakt, om 01:00 UTC
Wind 6 kt uit het zuidzuidwesten
Temperatuur 8°C
Vochtigheid 57%
Druk 1028 hPa
Zicht 10 km of meer
geen wolken onder 1500 m en geen cumulonimbus

METAR: SACO 240100Z 21006KT CAVOK 08/00 Q1028 NOSIG

Tijdstip: 22:13 (01:13 UTC)

Verwachting

Dit bericht is 2 uur en het 13 minuten geleden gemaakt, om 23:00 UTC
Verwachting geldig van 24 om 00 UTC tot 24 om 24 UTC
Wind 10 kt uit het zuidoosten
Zicht 10 km of meer
geen wolken onder 1500 m en geen cumulonimbus
Wijzigt naar
van 24 om 09 UTC tot 24 om 12 UTC
Wind 10 kt uit het noordoosten

TAF: SACO 232300Z 2400/2424 14010KT CAVOK TX13/2418Z TNM00/2410Z BECMG 2409/2412 05010KT

Waarnemingen en weersverwachtingen van meer dan 4000 vliegvelden (METAR en TAF).

De beschikbare stations zijn de gele en rode punten op de kaart.

Ga met uw muis naar het station om de naam te zien.

Klik dan om waarnemingen en weersverwachtingen te zien.

kaart wijzigen: klik op de groene knoppen met een zwart kruis om in te zoomen, op de groene knop met een streepje om uit te zoomen of op de groene pijlen voor aangrenzende kaarten.


METAR-TAF: